Darstellungsparameter: Aktuell verwendete Einstellungen:
Skalierung der Graphiken ... ?
xyx+y,   Skalierungsfaktor:      Skalierung: Modus: x, Faktor: 1
Darstellungszeitraum ... ?
Vom - - bis: - -   Zeitraum: 28.02.2011 - 28.02.2011
Min/Max/Avg-Anzeige ... ?
Zeige MMA aktuell
Zeige MMA Monat
Zeige MMA alles
Zeige --A aktuell
Zeige --A Monat
Zeige --A alles
Keine MMA-Anzeige
MMA:
Keine MMA-Graphiken
MMA-Basis: 28.02.2011 - 28.02.2011
Quicknavigation für Darstellung... ?
Tage:      1T, 2T, 3T, 5T -1T -2T -3T -5T +1T +2T +3T +5T
Wochen: 1W, 2W, 3W -1W -2W -3W +1W +2W +3W
Monate: 1M, 3M, 6M -1M -3M -6M +1M +3M +6M
Jahre:    1J, 3J, 5J, 10J -1J -3J -5J -10J +1J +3J +5J +10J
Nutze für die Darstellung ... ?
Originaldaten oder Mittelwerte auf ...
Stundenbasis Tagesbasis Wochenbasis
Monatsbasis Jahresbasis      Datenbasis: Original-Daten
Darstellen als:
Statistik (Auto) Statistik J:M      Darstellung:
Zur Graphik,    zurück zur Übersicht aller Sensoren.
 
Tabellarische Datenbersicht: ?
 
Sensor: Nr:Datum:Temp:Feuchte:Taupunkt:
Aussen-T/F 1 28-02-2011 00:00:03 3.6 C 70 % -1.35 C
2 28-02-2011 00:12:03 3.6 C 69 % -1.54 C
3 28-02-2011 00:24:03 3 C 71 % -1.73 C
4 28-02-2011 00:36:03 2.8 C 74 % -1.36 C
5 28-02-2011 00:48:03 2.7 C 75 % -1.28 C
6 28-02-2011 01:00:03 2.7 C 75 % -1.28 C
7 28-02-2011 01:12:03 1.9 C 78 % -1.52 C
8 28-02-2011 01:24:03 2 C 79 % -1.25 C
9 28-02-2011 01:36:03 2.4 C 79 % -0.86 C
10 28-02-2011 01:48:03 1.6 C 79 % -1.64 C
11 28-02-2011 02:00:03 1.5 C 81 % -1.4 C
12 28-02-2011 02:12:04 1.2 C 82 % -1.52 C
13 28-02-2011 02:24:04 0.9 C 84 % -1.49 C
14 28-02-2011 02:36:04 0.8 C 85 % -1.43 C
15 28-02-2011 02:48:04 1.4 C 85 % -0.84 C
16 28-02-2011 03:00:04 1.4 C 86 % -0.68 C
17 28-02-2011 03:12:04 1.6 C 86 % -0.48 C
18 28-02-2011 03:24:04 1.8 C 85 % -0.45 C
19 28-02-2011 03:36:04 2.2 C 82 % -0.55 C
20 28-02-2011 03:48:04 2.1 C 81 % -0.81 C
21 28-02-2011 04:00:04 1.9 C 80 % -1.18 C
22 28-02-2011 04:12:04 1.8 C 83 % -0.77 C
23 28-02-2011 04:24:04 2.4 C 82 % -0.35 C
24 28-02-2011 04:36:04 2.6 C 78 % -0.84 C
25 28-02-2011 04:48:04 2.6 C 77 % -1.02 C
Sensor: Nr:Datum:Temp:Feuchte:Taupunkt:
Aussen-T/F 26 28-02-2011 05:00:04 2.6 C 77 % -1.02 C
27 28-02-2011 05:12:04 2.6 C 77 % -1.02 C
28 28-02-2011 05:24:04 2.8 C 76 % -1 C
29 28-02-2011 05:36:04 2.7 C 77 % -0.92 C
30 28-02-2011 05:48:04 2.7 C 77 % -0.92 C
31 28-02-2011 06:00:04 2.9 C 77 % -0.72 C
32 28-02-2011 06:12:05 2.8 C 76 % -1 C
33 28-02-2011 06:24:05 2.7 C 76 % -1.1 C
34 28-02-2011 06:36:05 2.7 C 78 % -0.74 C
35 28-02-2011 06:48:05 2.6 C 79 % -0.67 C
36 28-02-2011 07:00:05 2.5 C 80 % -0.59 C
37 28-02-2011 07:12:04 2.6 C 79 % -0.67 C
38 28-02-2011 07:24:03 2.5 C 79 % -0.76 C
39 28-02-2011 07:36:03 2.5 C 79 % -0.76 C
40 28-02-2011 07:48:01 2.9 C 78 % -0.55 C
41 28-02-2011 08:00:01 2.9 C 77 % -0.72 C
42 28-02-2011 08:12:02 3.1 C 76 % -0.71 C
43 28-02-2011 08:24:01 3.3 C 76 % -0.52 C
44 28-02-2011 08:36:01 3.4 C 76 % -0.42 C
45 28-02-2011 08:48:01 3.5 C 75 % -0.5 C
46 28-02-2011 09:00:01 3.7 C 74 % -0.49 C
47 28-02-2011 09:12:02 3.9 C 72 % -0.68 C
48 28-02-2011 09:24:02 4.2 C 70 % -0.77 C
49 28-02-2011 09:36:01 5 C 68 % -0.4 C
50 28-02-2011 09:48:02 4.3 C 66 % -1.48 C
Sensor: Nr:Datum:Temp:Feuchte:Taupunkt:
Aussen-T/F 51 28-02-2011 10:00:02 3.4 C 70 % -1.54 C
52 28-02-2011 10:12:01 2.8 C 74 % -1.36 C
53 28-02-2011 10:24:02 3.4 C 77 % -0.24 C
54 28-02-2011 10:36:01 4.8 C 75 % 0.75 C
55 28-02-2011 10:48:02 6.3 C 65 % 0.22 C
56 28-02-2011 11:00:02 7.3 C 58 % -0.4 C
57 28-02-2011 11:12:02 7.3 C 54 % -1.38 C
58 28-02-2011 11:24:02 7 C 52 % -2.17 C
59 28-02-2011 11:36:02 7.8 C 51 % -1.69 C
60 28-02-2011 11:48:02 7.9 C 49 % -2.14 C
61 28-02-2011 12:00:02 8.1 C 48 % -2.23 C
62 28-02-2011 12:12:01 8.3 C 48 % -2.05 C
63 28-02-2011 12:24:01 8.6 C 46 % -2.35 C
64 28-02-2011 12:36:02 8.8 C 45 % -2.46 C
65 28-02-2011 12:48:02 8.5 C 44 % -3.04 C
66 28-02-2011 13:00:02 8.2 C 46 % -2.71 C
67 28-02-2011 13:12:02 8.5 C 45 % -2.73 C
68 28-02-2011 13:24:01 8.8 C 44 % -2.76 C
69 28-02-2011 13:36:02 10.4 C 38 % -3.29 C
70 28-02-2011 13:48:01 9.2 C 42 % -3.02 C
71 28-02-2011 14:00:01 9.1 C 43 % -2.8 C
72 28-02-2011 14:12:02 10.9 C 41 % -1.82 C
73 28-02-2011 14:24:01 10 C 40 % -2.96 C
74 28-02-2011 14:36:02 11.2 C 38 % -2.57 C
75 28-02-2011 14:48:01 10.5 C 39 % -2.85 C
Sensor: Nr:Datum:Temp:Feuchte:Taupunkt:
Aussen-T/F 76 28-02-2011 15:00:01 9.6 C 42 % -2.66 C
77 28-02-2011 15:12:02 9.7 C 42 % -2.57 C
78 28-02-2011 15:24:02 10 C 40 % -2.96 C
79 28-02-2011 15:36:02 11 C 39 % -2.4 C
80 28-02-2011 15:48:02 11.4 C 36 % -3.12 C
81 28-02-2011 16:00:02 11.5 C 36 % -3.03 C
82 28-02-2011 16:12:02 12.3 C 36 % -2.32 C
83 28-02-2011 16:24:02 15.2 C 28 % -3.16 C
84 28-02-2011 16:36:01 11.6 C 34 % -3.71 C
85 28-02-2011 16:48:02 9.2 C 41 % -3.35 C
86 28-02-2011 17:00:02 8.4 C 45 % -2.83 C
87 28-02-2011 17:12:01 8.1 C 46 % -2.8 C
88 28-02-2011 17:24:01 7.9 C 48 % -2.42 C
89 28-02-2011 17:36:01 7.7 C 48 % -2.6 C
90 28-02-2011 17:48:02 7.1 C 49 % -2.87 C
91 28-02-2011 18:00:02 6.1 C 56 % -2 C
92 28-02-2011 18:12:02 5.8 C 58 % -1.81 C
93 28-02-2011 18:24:02 5.1 C 61 % -1.79 C
94 28-02-2011 18:36:02 4.4 C 65 % -1.59 C
95 28-02-2011 18:48:01 4.2 C 67 % -1.37 C
96 28-02-2011 19:00:01 3.5 C 70 % -1.44 C
97 28-02-2011 19:12:02 3 C 73 % -1.35 C
98 28-02-2011 19:24:01 2.8 C 76 % -1 C
99 28-02-2011 19:36:01 2.6 C 77 % -1.02 C
100 28-02-2011 19:48:01 2.2 C 78 % -1.23 C
Sensor: Nr:Datum:Temp:Feuchte:Taupunkt:
Aussen-T/F 101 28-02-2011 20:00:01 2 C 79 % -1.25 C
102 28-02-2011 20:12:02 1.9 C 81 % -1.01 C
103 28-02-2011 20:24:01 1.9 C 82 % -0.84 C
104 28-02-2011 20:36:01 1.7 C 83 % -0.87 C
105 28-02-2011 20:48:01 1.5 C 84 % -0.9 C
106 28-02-2011 21:00:01 1.3 C 84 % -1.1 C
107 28-02-2011 21:12:02 1.3 C 85 % -0.94 C
108 28-02-2011 21:24:02 1.3 C 85 % -0.94 C
109 28-02-2011 21:37:02 1.4 C 86 % -0.68 C
110 28-02-2011 21:49:02 1.3 C 86 % -0.78 C
111 28-02-2011 22:01:02 1.4 C 86 % -0.68 C
112 28-02-2011 22:13:02 1.1 C 86 % -0.97 C
113 28-02-2011 22:25:02 1.1 C 86 % -0.97 C
114 28-02-2011 22:37:02 0.9 C 87 % -1.01 C
115 28-02-2011 22:49:02 0.7 C 87 % -1.21 C
116 28-02-2011 23:01:02 0.9 C 88 % -0.86 C
117 28-02-2011 23:13:02 1 C 87 % -0.91 C
118 28-02-2011 23:25:02 1.1 C 87 % -0.82 C
119 28-02-2011 23:37:02 0.7 C 88 % -1.05 C
120 28-02-2011 23:49:02 0.9 C 88 % -0.86 C

Legende:
   Min
   Max


Maximal/Minimal-Werte vom 28.02.2011 - 28.02.2011

Sensor Min Max Avg
Temp
(Aussen-T/F)
0.7 °C
28-02-2011  22:49:02
15.2 °C
28-02-2011  16:24:02
4.52 °C
Feuchte
(Aussen-T/F)
28 %
28-02-2011  16:24:02
88 %
28-02-2011  23:01:02
67.91 %
Taupunkt
(Aussen-T/F)
-3.71 C
28-02-2011  16:36:01
0.75 C
28-02-2011  10:36:01
-1.42 C

Die Daten stammen von einer Davis Vantage Pro 2 Wetter-Station und werden unter Linux mit der Software wview2wettercgi und aufbereitet. Alle Angaben erfolgen ohne Gewähr für ihre Vollständigkeit oder Richtigkeit.
Kontakt: Rainer Krienke krienke@uni-koblenz.de . Meine Webseiten an der Uni Koblenz oder privat.
Version: $Revision: 0.78 $